createdAt,value
2018-08-13T00:00:45.162Z,5.07
2018-08-13T00:03:12.836Z,5.83
2018-08-13T00:05:40.549Z,16.73
2018-08-13T00:08:08.232Z,9.73
2018-08-13T00:10:35.623Z,10.40
2018-08-13T00:13:03.149Z,16.17
2018-08-13T00:15:31.170Z,6.70
2018-08-13T00:17:59.489Z,11.20
2018-08-13T00:20:27.038Z,7.10
2018-08-13T00:22:54.486Z,4.03
2018-08-13T00:25:21.871Z,6.53
2018-08-13T00:27:49.356Z,4.90
2018-08-13T00:30:16.812Z,6.67
2018-08-13T00:32:44.535Z,5.90
2018-08-13T00:35:12.059Z,3.40
2018-08-13T00:37:39.532Z,4.17
2018-08-13T00:40:08.081Z,6.10
2018-08-13T00:42:35.684Z,3.87
2018-08-13T00:45:04.059Z,4.53
2018-08-13T00:47:31.555Z,4.60
2018-08-13T00:49:59.015Z,4.97
2018-08-13T00:52:26.558Z,2.67
2018-08-13T00:54:54.164Z,5.33
2018-08-13T00:57:21.906Z,4.23
2018-08-13T00:59:49.295Z,4.90
2018-08-13T01:02:16.831Z,2.53
2018-08-13T01:04:44.303Z,3.90
2018-08-13T01:07:11.905Z,3.47
2018-08-13T01:09:39.437Z,7.60
2018-08-13T01:12:07.097Z,2.90
2018-08-13T01:14:35.262Z,4.97
2018-08-13T01:17:02.839Z,3.60
2018-08-13T01:19:30.552Z,2.03
2018-08-13T01:21:59.029Z,3.03
2018-08-13T01:24:26.620Z,3.10
2018-08-13T01:26:54.280Z,3.30
2018-08-13T01:29:21.831Z,7.83
2018-08-13T01:31:49.375Z,2.80
2018-08-13T01:34:16.869Z,4.23
2018-08-13T01:36:44.416Z,4.90
2018-08-13T01:39:11.988Z,3.47
2018-08-13T01:41:39.537Z,3.53
2018-08-13T01:44:07.140Z,3.80
2018-08-13T01:46:35.020Z,3.90
2018-08-13T01:49:02.568Z,2.20
2018-08-13T01:51:30.029Z,4.87
2018-08-13T01:53:57.655Z,7.70
2018-08-13T01:56:25.161Z,5.70
2018-08-13T01:58:52.605Z,2.83
2018-08-13T02:01:20.122Z,4.37
2018-08-13T02:16:52.193Z,2.50
2018-08-13T02:19:19.883Z,2.43
2018-08-13T02:21:47.406Z,3.60
2018-08-13T02:24:14.928Z,3.00
2018-08-13T02:26:42.427Z,3.00
2018-08-13T02:29:10.055Z,2.87
2018-08-13T02:31:37.557Z,3.20
2018-08-13T02:34:05.232Z,3.40
2018-08-13T02:36:32.773Z,4.23
2018-08-13T02:39:00.358Z,2.90
2018-08-13T02:41:27.777Z,4.93
2018-08-13T02:43:55.430Z,2.57
2018-08-13T02:46:22.976Z,7.30
2018-08-13T02:48:50.468Z,2.23
2018-08-13T02:51:17.988Z,3.00
2018-08-13T02:53:45.643Z,3.40
2018-08-13T02:56:13.184Z,4.00
2018-08-13T02:58:40.748Z,4.40
2018-08-13T03:01:08.730Z,2.23
2018-08-13T03:03:36.300Z,2.53
2018-08-13T03:06:04.044Z,4.53
2018-08-13T03:08:31.543Z,4.50
2018-08-13T03:10:59.255Z,2.43
2018-08-13T03:13:26.952Z,2.23
2018-08-13T03:15:54.435Z,2.63
2018-08-13T03:18:21.963Z,2.97
2018-08-13T03:20:49.602Z,5.40
2018-08-13T03:23:17.081Z,3.53
2018-08-13T03:25:44.619Z,2.60
2018-08-13T03:28:12.827Z,3.83
2018-08-13T03:30:40.496Z,3.30
2018-08-13T03:33:08.123Z,3.67
2018-08-13T03:35:35.643Z,3.30
2018-08-13T03:38:03.172Z,3.30
2018-08-13T03:40:30.736Z,2.80
2018-08-13T03:42:58.221Z,8.23
2018-08-13T03:45:25.759Z,5.03
2018-08-13T03:47:53.321Z,2.10
2018-08-13T03:50:20.765Z,6.40
2018-08-13T03:52:48.254Z,3.63
2018-08-13T03:55:15.829Z,6.70
2018-08-13T03:57:43.327Z,3.57
2018-08-13T04:00:14.133Z,5.70
2018-08-13T04:15:46.287Z,4.87
2018-08-13T04:18:13.964Z,3.07
2018-08-13T04:20:41.489Z,2.90
2018-08-13T04:23:08.970Z,4.90
2018-08-13T04:25:36.453Z,3.60
2018-08-13T04:28:04.307Z,4.93
2018-08-13T04:30:32.048Z,4.10
2018-08-13T04:32:59.516Z,2.97
2018-08-13T04:35:27.069Z,3.43
2018-08-13T04:37:54.647Z,2.90
2018-08-13T04:40:22.196Z,5.47
2018-08-13T04:42:49.849Z,3.37
2018-08-13T04:45:17.353Z,5.30
2018-08-13T04:47:51.473Z,7.50
2018-08-13T04:50:19.438Z,5.20
2018-08-13T04:52:48.124Z,4.07
2018-08-13T04:55:15.747Z,7.37
2018-08-13T04:57:43.439Z,2.90
2018-08-13T05:00:10.980Z,3.87
2018-08-13T05:02:38.764Z,8.47
2018-08-13T05:05:07.745Z,5.70
2018-08-13T05:07:35.435Z,5.63
2018-08-13T05:10:03.498Z,4.70
2018-08-13T05:12:32.274Z,3.30
2018-08-13T05:15:00.110Z,3.20
2018-08-13T05:17:27.612Z,6.40
2018-08-13T05:19:55.280Z,4.17
2018-08-13T05:22:24.872Z,20.13
2018-08-13T05:24:53.625Z,5.80
2018-08-13T05:27:21.226Z,5.27
2018-08-13T05:29:48.793Z,5.53
2018-08-13T05:32:16.308Z,7.53
2018-08-13T05:34:44.384Z,7.93
2018-08-13T05:37:11.944Z,8.03
2018-08-13T05:39:39.600Z,9.30
2018-08-13T05:42:07.727Z,6.90
2018-08-13T05:44:35.292Z,6.53
2018-08-13T05:47:02.793Z,5.30
2018-08-13T05:49:31.202Z,5.70
2018-08-13T05:51:58.880Z,53.73
2018-08-13T05:54:27.098Z,6.30
2018-08-13T05:56:55.400Z,7.00
2018-08-13T05:59:23.010Z,5.43
2018-08-13T06:01:50.516Z,5.13
2018-08-13T06:04:18.236Z,5.63
2018-08-13T06:06:46.323Z,8.10
2018-08-13T06:09:13.837Z,13.67
2018-08-13T06:11:41.593Z,11.73
2018-08-13T06:14:09.187Z,10.13
2018-08-13T06:16:36.954Z,13.63
2018-08-13T06:19:04.576Z,11.03
2018-08-13T06:21:32.141Z,15.27
2018-08-13T06:23:59.744Z,13.03
2018-08-13T06:26:27.319Z,16.13
2018-08-13T06:28:55.525Z,8.63
2018-08-13T06:31:24.347Z,19.20
2018-08-13T06:33:52.684Z,8.30
2018-08-13T06:36:20.489Z,10.63
2018-08-13T06:38:48.187Z,6.87
2018-08-13T06:41:15.657Z,7.60
2018-08-13T06:43:43.188Z,13.67
2018-08-13T06:46:10.869Z,7.50
2018-08-13T06:48:38.393Z,6.93
2018-08-13T06:51:05.967Z,11.40
2018-08-13T06:53:34.950Z,9.43
2018-08-13T06:56:02.513Z,14.27
2018-08-13T06:58:30.207Z,13.10
2018-08-13T07:00:58.301Z,17.33
2018-08-13T07:03:25.777Z,15.40
2018-08-13T07:05:53.281Z,18.40
2018-08-13T07:08:20.922Z,12.17
2018-08-13T07:10:48.725Z,12.70
2018-08-13T07:13:16.216Z,9.10
2018-08-13T07:15:43.925Z,15.80
2018-08-13T07:18:12.300Z,11.43
2018-08-13T07:20:41.111Z,6.07
2018-08-13T07:23:08.881Z,8.63
2018-08-13T07:25:37.096Z,8.90
2018-08-13T07:28:05.228Z,11.20
2018-08-13T07:30:32.746Z,9.20
2018-08-13T07:33:00.228Z,7.33
2018-08-13T07:35:28.546Z,6.90
2018-08-13T07:37:56.279Z,12.63
2018-08-13T07:40:23.837Z,11.10
2018-08-13T07:42:51.916Z,9.37
2018-08-13T07:45:19.501Z,9.40
2018-08-13T07:47:48.315Z,7.63
2018-08-13T07:50:15.948Z,9.83
2018-08-13T07:52:44.166Z,12.80
2018-08-13T07:55:12.681Z,10.57
2018-08-13T07:57:41.322Z,11.53
2018-08-13T08:00:11.290Z,13.90
2018-08-13T08:02:38.934Z,9.40
2018-08-13T08:05:07.067Z,7.30
2018-08-13T08:07:34.971Z,9.63
2018-08-13T08:10:03.064Z,10.87
2018-08-13T08:12:30.593Z,11.50
2018-08-13T08:14:58.617Z,13.30
2018-08-13T08:17:26.152Z,12.40
2018-08-13T08:19:53.801Z,15.40
2018-08-13T08:22:21.371Z,13.70
2018-08-13T08:24:49.357Z,16.73
2018-08-13T08:27:16.912Z,23.50
2018-08-13T08:29:44.467Z,15.13
2018-08-13T08:32:12.050Z,17.20
2018-08-13T08:34:39.773Z,15.63
2018-08-13T08:37:07.977Z,8.87
2018-08-13T08:39:35.555Z,16.37
2018-08-13T08:42:03.152Z,13.90
2018-08-13T08:44:30.721Z,12.23
2018-08-13T08:46:58.267Z,9.27
2018-08-13T08:49:26.861Z,13.30
2018-08-13T08:51:54.570Z,12.10
2018-08-13T08:54:23.059Z,12.80
2018-08-13T08:56:51.527Z,13.67
2018-08-13T08:59:19.639Z,9.87
2018-08-13T09:01:47.197Z,14.60
2018-08-13T09:04:14.735Z,11.40
2018-08-13T09:06:42.775Z,13.70
2018-08-13T09:09:12.717Z,10.40
2018-08-13T09:11:40.891Z,11.00
2018-08-13T09:14:09.361Z,11.50
2018-08-13T09:16:39.602Z,13.47
2018-08-13T09:19:18.671Z,12.20
2018-08-13T09:21:50.089Z,11.53
2018-08-13T09:24:28.828Z,12.70
2018-08-13T09:27:07.862Z,15.77
2018-08-13T09:29:46.773Z,12.80
2018-08-13T09:32:27.299Z,15.53
2018-08-13T09:35:00.849Z,14.80
2018-08-13T09:37:28.889Z,15.23
2018-08-13T09:39:57.142Z,14.07
2018-08-13T09:42:25.253Z,18.50
2018-08-13T09:44:54.610Z,12.30
2018-08-13T09:47:22.319Z,18.40
2018-08-13T09:49:49.968Z,14.83
2018-08-13T09:52:17.670Z,13.50
2018-08-13T09:54:45.836Z,14.67
2018-08-13T09:57:13.886Z,12.87
2018-08-13T09:59:41.567Z,12.87
2018-08-13T10:02:09.198Z,11.00
2018-08-13T10:04:37.464Z,13.13
2018-08-13T10:07:06.127Z,10.60
2018-08-13T10:09:34.326Z,17.57
2018-08-13T10:12:02.207Z,17.33
2018-08-13T10:14:29.784Z,13.60
2018-08-13T10:16:58.273Z,12.17
2018-08-13T10:19:26.726Z,11.80
2018-08-13T10:21:55.060Z,15.40
2018-08-13T10:24:23.403Z,11.63
2018-08-13T10:26:51.009Z,13.53
2018-08-13T10:29:18.591Z,14.83
2018-08-13T10:31:46.157Z,12.53
2018-08-13T10:34:13.727Z,17.10
2018-08-13T10:36:41.347Z,17.10
2018-08-13T10:39:09.982Z,17.27
2018-08-13T10:41:38.383Z,13.03
2018-08-13T10:44:07.848Z,14.17
2018-08-13T10:46:35.583Z,14.30
2018-08-13T10:49:03.591Z,9.90
2018-08-13T10:51:31.556Z,15.20
2018-08-13T10:54:00.341Z,16.17
2018-08-13T10:56:29.214Z,14.50
2018-08-13T10:58:57.294Z,12.90
2018-08-13T11:01:25.988Z,12.30
2018-08-13T11:03:55.273Z,12.87
2018-08-13T11:06:24.972Z,12.90
2018-08-13T11:08:53.944Z,8.90
2018-08-13T11:11:22.357Z,11.23
2018-08-13T11:13:51.500Z,13.77
2018-08-13T11:16:19.340Z,12.43
2018-08-13T11:18:48.115Z,15.00
2018-08-13T11:21:16.649Z,13.57
2018-08-13T11:23:45.119Z,12.03
2018-08-13T11:26:14.046Z,13.10
2018-08-13T11:28:42.205Z,11.60
2018-08-13T11:31:11.475Z,13.30
2018-08-13T11:33:40.459Z,15.40
2018-08-13T11:36:08.533Z,23.43
2018-08-13T11:38:36.531Z,14.90
2018-08-13T11:41:04.789Z,15.87
2018-08-13T11:43:33.523Z,16.33
2018-08-13T11:46:01.450Z,11.87
2018-08-13T11:48:29.632Z,13.00
2018-08-13T11:50:57.988Z,11.20
2018-08-13T11:53:26.340Z,10.80
2018-08-13T11:55:55.050Z,11.20
2018-08-13T11:58:23.038Z,13.27
2018-08-13T12:00:52.202Z,15.47
2018-08-13T12:03:21.278Z,10.50
2018-08-13T12:05:49.328Z,11.10
2018-08-13T12:08:17.436Z,10.00
2018-08-13T12:10:46.235Z,10.30
2018-08-13T12:13:14.294Z,10.40
2018-08-13T12:15:42.080Z,10.57
2018-08-13T12:18:11.292Z,9.97
2018-08-13T12:20:40.058Z,8.90
2018-08-13T12:23:09.908Z,8.00
2018-08-13T12:25:38.543Z,11.80
2018-08-13T12:28:06.944Z,7.80
2018-08-13T12:30:37.660Z,9.60
2018-08-13T12:33:06.184Z,8.90
2018-08-13T12:35:37.281Z,7.20
2018-08-13T12:38:05.612Z,5.33
2018-08-13T12:40:34.451Z,7.63
2018-08-13T12:43:03.533Z,5.27
2018-08-13T12:45:31.729Z,4.97
2018-08-13T12:48:00.809Z,5.60
2018-08-13T12:50:29.439Z,4.30
2018-08-13T12:52:57.523Z,7.17
2018-08-13T12:56:49.826Z,7.30
2018-08-13T12:59:18.529Z,4.20
2018-08-13T13:01:46.392Z,5.43
2018-08-13T13:04:14.853Z,6.23
2018-08-13T13:06:43.043Z,6.17
2018-08-13T13:09:12.450Z,6.03
2018-08-13T13:11:41.623Z,5.13
2018-08-13T13:14:10.123Z,4.03
2018-08-13T13:16:39.040Z,5.27
2018-08-13T13:19:07.476Z,4.67
2018-08-13T13:21:35.259Z,4.97
2018-08-13T13:24:04.926Z,6.97
2018-08-13T13:26:33.213Z,4.73
2018-08-13T13:29:02.412Z,4.10
2018-08-13T13:31:31.925Z,4.30
2018-08-13T13:34:00.685Z,3.70
2018-08-13T13:36:28.852Z,4.80
2018-08-13T13:38:56.808Z,4.80
2018-08-13T13:41:24.953Z,4.33
2018-08-13T13:43:54.724Z,4.93
2018-08-13T13:46:24.384Z,5.13
2018-08-13T13:48:52.662Z,5.10
2018-08-13T13:51:23.181Z,4.47
2018-08-13T13:53:52.692Z,3.93
2018-08-13T13:56:23.287Z,4.23
2018-08-13T13:58:53.282Z,6.67
2018-08-13T14:01:21.650Z,3.90
2018-08-13T14:03:50.909Z,4.10
2018-08-13T14:06:19.773Z,3.67
2018-08-13T14:08:48.540Z,4.53
2018-08-13T14:11:16.672Z,10.37
2018-08-13T14:13:45.153Z,3.63
2018-08-13T14:16:13.296Z,4.13
2018-08-13T14:18:42.396Z,4.70
2018-08-13T14:21:10.842Z,4.23
2018-08-13T14:23:38.548Z,3.50
2018-08-13T14:26:07.130Z,3.97
2018-08-13T14:28:36.292Z,3.67
2018-08-13T14:32:08.039Z,3.50
2018-08-13T14:34:36.899Z,4.67
2018-08-13T14:37:04.397Z,4.40
2018-08-13T14:39:32.014Z,4.33
2018-08-13T14:42:00.304Z,3.23
2018-08-13T14:44:28.029Z,2.83
2018-08-13T14:46:55.581Z,4.90
2018-08-13T14:49:23.178Z,2.97
2018-08-13T14:51:50.883Z,2.53
2018-08-13T14:54:18.534Z,4.70
2018-08-13T14:56:46.718Z,6.17
2018-08-13T14:59:14.499Z,4.37
2018-08-13T15:01:42.240Z,3.67
2018-08-13T15:04:09.856Z,3.60
2018-08-13T15:06:37.754Z,5.00
2018-08-13T15:09:08.401Z,2.53
2018-08-13T15:11:38.727Z,3.67
2018-08-13T15:14:08.719Z,4.63
2018-08-13T15:16:36.436Z,4.50
2018-08-13T15:19:04.578Z,3.90
2018-08-13T15:21:33.076Z,7.23
2018-08-13T15:24:01.567Z,2.63
2018-08-13T15:26:30.861Z,4.83
2018-08-13T15:28:58.745Z,5.87
2018-08-13T15:31:26.225Z,4.50
2018-08-13T15:33:53.790Z,3.40
2018-08-13T15:36:21.652Z,3.73
2018-08-13T15:38:49.353Z,4.87
2018-08-13T15:41:17.147Z,5.43
2018-08-13T15:43:44.823Z,4.03
2018-08-13T15:46:12.654Z,3.47
2018-08-13T15:48:40.300Z,7.23
2018-08-13T15:51:08.055Z,8.20
2018-08-13T15:53:35.528Z,11.30
2018-08-13T15:56:03.267Z,4.20
2018-08-13T15:58:30.851Z,7.77
2018-08-13T16:00:58.569Z,4.70
2018-08-13T16:03:26.041Z,4.17
2018-08-13T16:05:53.571Z,4.77
2018-08-13T16:08:21.589Z,2.40
2018-08-13T16:10:49.204Z,8.50
2018-08-13T16:13:16.717Z,3.00
2018-08-13T16:15:44.451Z,11.40
2018-08-13T16:18:12.073Z,11.47
2018-08-13T16:20:39.656Z,6.50
2018-08-13T16:23:08.359Z,4.90
2018-08-13T16:25:35.961Z,2.57
2018-08-13T16:28:03.552Z,3.60
2018-08-13T16:30:31.447Z,3.70
2018-08-13T16:32:59.198Z,3.50
2018-08-13T16:35:26.946Z,4.73
2018-08-13T16:37:55.045Z,4.13
2018-08-13T16:40:22.661Z,4.03
2018-08-13T16:42:51.363Z,2.80
2018-08-13T16:45:20.510Z,2.40
2018-08-13T16:47:48.134Z,2.50
2018-08-13T16:50:22.489Z,3.20
2018-08-13T16:52:50.655Z,2.47
2018-08-13T16:55:18.248Z,6.60
2018-08-13T16:57:45.878Z,4.50
2018-08-13T17:00:15.821Z,3.67
2018-08-13T17:02:45.229Z,4.37
2018-08-13T17:05:12.934Z,4.40
2018-08-13T17:07:41.719Z,3.60
2018-08-13T17:10:13.368Z,2.07
2018-08-13T17:12:41.217Z,1.80
2018-08-13T17:15:09.924Z,2.10
2018-08-13T17:17:37.909Z,1.70
2018-08-13T17:20:06.709Z,3.03
2018-08-13T17:22:34.288Z,2.03
2018-08-13T17:25:02.552Z,4.20
2018-08-13T17:27:30.442Z,4.60
2018-08-13T17:29:58.180Z,2.03
2018-08-13T17:35:24.793Z,2.07
2018-08-13T17:37:52.803Z,2.73
2018-08-13T17:40:22.480Z,3.63
2018-08-13T17:42:51.104Z,2.87
2018-08-13T17:45:19.042Z,2.27
2018-08-13T17:47:47.022Z,4.87
2018-08-13T17:50:18.807Z,6.47
2018-08-13T17:52:46.690Z,5.20
2018-08-13T17:55:14.900Z,3.70
2018-08-13T17:57:43.150Z,18.57
2018-08-13T18:00:16.307Z,10.73
2018-08-13T18:02:44.019Z,5.97
2018-08-13T18:05:14.377Z,4.93
2018-08-13T18:07:42.812Z,5.20
2018-08-13T18:10:11.797Z,6.97
2018-08-13T18:12:40.101Z,10.53
2018-08-13T18:15:10.464Z,13.17
2018-08-13T18:17:38.274Z,14.00
2018-08-13T18:20:05.884Z,11.37
2018-08-13T18:22:33.348Z,10.70
2018-08-13T18:25:01.100Z,8.10
2018-08-13T18:27:28.586Z,8.10
2018-08-13T18:42:55.655Z,6.33
2018-08-13T18:45:23.082Z,8.67
2018-08-13T18:47:50.905Z,6.77
2018-08-13T18:50:19.811Z,7.80
2018-08-13T18:52:47.501Z,7.37
2018-08-13T18:55:17.833Z,4.03
2018-08-13T18:57:46.328Z,3.20
2018-08-13T19:00:17.105Z,4.60
2018-08-13T19:02:45.798Z,2.93
2018-08-13T19:05:14.797Z,21.83
2018-08-13T19:07:43.737Z,17.30
2018-08-13T19:10:12.717Z,11.60
2018-08-13T19:12:40.476Z,18.40
2018-08-13T19:15:10.492Z,10.63
2018-08-13T19:17:39.942Z,6.10
2018-08-13T19:20:09.684Z,4.40
2018-08-13T19:22:37.625Z,3.70
2018-08-13T19:25:08.555Z,4.07
2018-08-13T19:27:36.508Z,4.70
2018-08-13T19:30:05.313Z,3.00
2018-08-13T19:32:33.140Z,4.67
2018-08-13T19:35:02.023Z,4.37
2018-08-13T19:37:29.717Z,3.97
2018-08-13T19:39:57.485Z,3.20
2018-08-13T19:42:25.308Z,4.53
2018-08-13T19:44:53.250Z,2.33
2018-08-13T19:47:20.946Z,6.30
2018-08-13T19:49:48.669Z,3.50
2018-08-13T19:52:16.540Z,3.60
2018-08-13T19:54:44.426Z,6.33
2018-08-13T19:57:12.185Z,4.70
2018-08-13T19:59:40.150Z,2.70
2018-08-13T20:02:07.988Z,4.60
2018-08-13T20:04:35.826Z,3.03
2018-08-13T20:07:03.936Z,3.60
2018-08-13T20:09:32.000Z,6.90
2018-08-13T20:11:59.983Z,4.60
2018-08-13T20:14:28.752Z,6.20
2018-08-13T20:16:56.774Z,19.00
2018-08-13T20:19:25.376Z,14.30
2018-08-13T20:21:53.356Z,15.40
2018-08-13T20:24:23.112Z,8.50
2018-08-13T20:26:51.123Z,3.33
2018-08-13T20:29:18.691Z,3.27
2018-08-13T20:31:46.971Z,3.37
2018-08-13T20:34:14.521Z,4.57
2018-08-13T20:36:42.124Z,3.07
2018-08-13T20:39:13.245Z,2.87
2018-08-13T20:41:41.095Z,3.23
2018-08-13T20:44:09.572Z,2.70
2018-08-13T20:46:37.466Z,4.03
2018-08-13T20:49:05.621Z,4.67
2018-08-13T20:51:33.634Z,7.73
2018-08-13T20:54:01.298Z,19.60
2018-08-13T20:56:28.860Z,19.87
2018-08-13T20:58:56.420Z,22.17
2018-08-13T21:01:24.035Z,5.80
2018-08-13T21:03:51.959Z,4.33
2018-08-13T21:06:19.513Z,4.10
2018-08-13T21:08:47.055Z,3.13
2018-08-13T21:11:14.588Z,3.80
2018-08-13T21:13:42.201Z,3.23
2018-08-13T21:16:09.817Z,3.57
2018-08-13T21:18:37.396Z,2.67
2018-08-13T21:21:04.949Z,4.13
2018-08-13T21:23:32.386Z,5.53
2018-08-13T21:25:59.981Z,3.17
2018-08-13T21:28:27.541Z,3.13
2018-08-13T21:30:55.101Z,3.40
2018-08-13T21:33:22.684Z,4.20
2018-08-13T21:35:50.231Z,5.10
2018-08-13T21:38:17.763Z,3.43
2018-08-13T21:40:45.296Z,4.20
2018-08-13T21:43:12.912Z,4.80
2018-08-13T21:45:40.465Z,4.13
2018-08-13T21:48:07.968Z,3.13
2018-08-13T21:50:35.723Z,3.00
2018-08-13T21:53:03.245Z,3.80
2018-08-13T21:55:31.372Z,4.37
2018-08-13T21:57:58.908Z,4.60
2018-08-13T22:00:30.320Z,3.73
2018-08-13T22:03:00.964Z,6.60
2018-08-13T22:05:28.543Z,2.57
2018-08-13T22:07:56.280Z,3.70
2018-08-13T22:10:23.924Z,4.27
2018-08-13T22:12:51.555Z,3.73
2018-08-13T22:15:25.813Z,2.70
2018-08-13T22:17:54.310Z,5.00
2018-08-13T22:20:22.166Z,3.70
2018-08-13T22:22:49.752Z,3.83
2018-08-13T22:25:19.913Z,5.30
2018-08-13T22:27:47.566Z,2.63
2018-08-13T22:30:15.167Z,3.90
2018-08-13T22:32:42.739Z,2.57
2018-08-13T22:35:10.560Z,2.90
2018-08-13T22:37:40.154Z,9.13
2018-08-13T22:40:10.993Z,5.00
2018-08-13T22:42:38.644Z,2.53
2018-08-13T22:45:07.296Z,4.27
2018-08-13T22:47:34.842Z,2.33
2018-08-13T22:50:03.950Z,2.57
2018-08-13T22:52:31.521Z,2.43
2018-08-13T22:54:58.987Z,2.27
2018-08-13T22:57:26.548Z,4.70
2018-08-13T22:59:54.080Z,5.00
2018-08-13T23:02:21.572Z,4.80
2018-08-13T23:04:49.139Z,4.00
2018-08-13T23:07:16.597Z,2.70
2018-08-13T23:09:44.106Z,7.73
2018-08-13T23:12:11.672Z,4.90
2018-08-13T23:14:39.236Z,3.17
2018-08-13T23:17:06.732Z,2.73
2018-08-13T23:19:34.273Z,2.60
2018-08-13T23:22:01.960Z,3.00
2018-08-13T23:24:29.496Z,3.13
2018-08-13T23:26:57.311Z,6.83
2018-08-13T23:29:24.853Z,3.53
2018-08-13T23:31:52.415Z,3.47
2018-08-13T23:34:19.990Z,2.20
2018-08-13T23:36:47.608Z,2.27
2018-08-13T23:39:15.105Z,4.07
2018-08-13T23:41:43.279Z,3.00
2018-08-13T23:44:10.819Z,2.70
2018-08-13T23:46:38.432Z,4.40
2018-08-13T23:49:06.204Z,2.53
2018-08-13T23:51:33.968Z,3.10
2018-08-13T23:54:01.505Z,2.10
2018-08-13T23:56:29.026Z,2.60
2018-08-13T23:58:56.571Z,4.40
